createdAt,value
2023-05-14T00:00:50.146Z,101039.16
2023-05-14T00:03:28.690Z,101056.72
2023-05-14T00:05:56.274Z,101042.38
2023-05-14T00:08:23.446Z,101040.84
2023-05-14T00:10:51.047Z,101037.88
2023-05-14T00:13:18.198Z,101054.00
2023-05-14T00:15:45.784Z,101045.97
2023-05-14T00:18:13.073Z,101045.00
2023-05-14T00:20:41.136Z,101049.03
2023-05-14T00:23:08.398Z,101038.78
2023-05-14T00:25:36.277Z,101042.19
2023-05-14T00:28:04.143Z,101052.16
2023-05-14T00:30:31.693Z,101047.31
2023-05-14T00:32:58.884Z,101042.19
2023-05-14T00:35:26.637Z,101041.91
2023-05-14T00:37:53.929Z,101037.47
2023-05-14T00:40:25.930Z,101044.72
2023-05-14T00:42:54.284Z,101040.59
2023-05-14T00:45:22.298Z,101050.28
2023-05-14T00:47:49.917Z,101043.16
2023-05-14T00:50:18.065Z,101033.00
2023-05-14T00:52:45.335Z,101046.69
2023-05-14T00:55:16.691Z,101042.81
2023-05-14T00:57:44.822Z,101044.50
2023-05-14T01:00:12.807Z,101042.81
2023-05-14T01:02:40.166Z,101028.44
2023-05-14T01:05:08.544Z,101036.91
2023-05-14T01:07:41.590Z,101033.72
2023-05-14T01:10:16.034Z,101035.66
2023-05-14T01:13:11.962Z,101032.00
2023-05-14T01:15:41.474Z,101045.09
2023-05-14T01:18:10.881Z,101036.72
2023-05-14T01:20:38.418Z,101033.38
2023-05-14T01:23:06.070Z,101031.81
2023-05-14T01:25:33.889Z,101033.78
2023-05-14T01:28:17.937Z,101028.38
2023-05-14T01:31:16.248Z,101032.47
2023-05-14T01:33:44.853Z,101023.25
2023-05-14T01:36:13.305Z,101026.13
2023-05-14T01:38:45.716Z,101032.44
2023-05-14T01:41:15.042Z,101031.59
2023-05-14T01:43:42.587Z,101023.38
2023-05-14T01:46:10.188Z,101034.59
2023-05-14T01:48:37.998Z,101019.34
2023-05-14T01:51:05.535Z,101014.25
2023-05-14T01:53:34.952Z,101030.56
2023-05-14T01:56:02.514Z,101014.25
2023-05-14T01:58:29.859Z,101014.25
2023-05-14T02:00:57.368Z,101022.97
2023-05-14T02:03:24.715Z,101022.28
2023-05-14T02:05:52.280Z,101018.06
2023-05-14T02:08:19.447Z,101016.66
2023-05-14T02:10:46.977Z,101010.44
2023-05-14T02:13:15.518Z,101014.88
2023-05-14T02:15:43.034Z,101019.75
2023-05-14T02:18:10.276Z,101017.56
2023-05-14T02:20:37.786Z,101020.84
2023-05-14T02:23:04.995Z,101013.34
2023-05-14T02:25:32.472Z,101016.91
2023-05-14T02:27:59.656Z,101010.50
2023-05-14T02:30:27.125Z,101016.66
2023-05-14T02:32:54.564Z,101014.81
2023-05-14T02:35:22.110Z,101014.22
2023-05-14T02:37:49.274Z,101006.28
2023-05-14T02:40:16.785Z,101013.50
2023-05-14T02:42:44.036Z,101008.00
2023-05-14T02:45:11.751Z,101007.25
2023-05-14T02:47:40.728Z,101008.00
2023-05-14T02:50:08.946Z,101008.97
2023-05-14T02:52:36.404Z,101012.66
2023-05-14T02:55:04.916Z,100992.03
2023-05-14T02:57:32.427Z,100991.09
2023-05-14T03:00:00.155Z,100998.72
2023-05-14T03:02:27.886Z,100999.75
2023-05-14T03:04:55.819Z,100991.19
2023-05-14T03:07:23.074Z,101000.53
2023-05-14T03:09:50.502Z,100998.22
2023-05-14T03:12:18.248Z,101001.78
2023-05-14T03:14:45.665Z,100991.13
2023-05-14T03:17:13.079Z,100997.03
2023-05-14T03:19:40.585Z,101000.53
2023-05-14T03:22:07.942Z,100996.63
2023-05-14T03:24:35.651Z,100994.81
2023-05-14T03:27:03.464Z,100990.66
2023-05-14T03:29:31.046Z,100993.75
2023-05-14T03:31:58.284Z,100984.13
2023-05-14T03:34:25.903Z,100984.19
2023-05-14T03:36:53.153Z,100992.88
2023-05-14T03:39:21.193Z,100994.22
2023-05-14T03:41:48.670Z,100993.03
2023-05-14T03:44:16.590Z,100989.44
2023-05-14T03:46:44.695Z,100995.38
2023-05-14T03:49:12.296Z,101000.63
2023-05-14T03:51:39.812Z,100994.97
2023-05-14T03:54:07.656Z,100995.25
2023-05-14T03:56:34.894Z,100994.69
2023-05-14T03:59:03.755Z,100985.69
2023-05-14T04:01:32.611Z,100978.56
2023-05-14T04:04:00.304Z,100983.75
2023-05-14T04:06:27.598Z,100991.78
2023-05-14T04:08:55.658Z,100985.25
2023-05-14T04:11:22.856Z,100986.19
2023-05-14T04:13:50.312Z,100989.19
2023-05-14T04:16:17.553Z,100986.03
2023-05-14T04:18:45.235Z,100990.16
2023-05-14T04:21:12.638Z,100989.47
2023-05-14T04:23:40.113Z,100985.13
2023-05-14T04:26:07.247Z,100990.69
2023-05-14T04:28:34.714Z,100977.28
2023-05-14T04:31:01.901Z,100981.34
2023-05-14T04:33:29.379Z,100985.44
2023-05-14T04:35:56.659Z,100989.28
2023-05-14T04:38:24.166Z,100981.47
2023-05-14T04:40:51.486Z,100976.19
2023-05-14T04:43:18.937Z,100977.28
2023-05-14T04:45:46.277Z,100975.81
2023-05-14T04:48:13.852Z,100972.69
2023-05-14T04:50:41.113Z,100981.19
2023-05-14T04:53:08.646Z,100992.09
2023-05-14T04:55:35.897Z,100972.31
2023-05-14T04:58:03.657Z,100989.91
2023-05-14T05:00:31.032Z,100989.25
2023-05-14T05:02:58.842Z,100980.84
2023-05-14T05:05:26.247Z,100971.66
2023-05-14T05:07:53.858Z,100974.84
2023-05-14T05:10:21.270Z,100974.00
2023-05-14T05:12:48.869Z,100982.88
2023-05-14T05:15:16.268Z,100970.81
2023-05-14T05:17:43.783Z,100975.09
2023-05-14T05:20:11.546Z,100982.63
2023-05-14T05:22:39.107Z,100978.94
2023-05-14T05:25:06.584Z,100986.59
2023-05-14T05:27:34.341Z,100970.59
2023-05-14T05:30:02.412Z,100978.34
2023-05-14T05:32:31.431Z,100979.28
2023-05-14T05:34:58.654Z,100978.66
2023-05-14T05:37:26.234Z,100976.97
2023-05-14T05:39:54.067Z,100983.13
2023-05-14T05:42:22.559Z,100979.91
2023-05-14T05:44:49.745Z,100965.22
2023-05-14T05:47:17.315Z,100972.28
2023-05-14T05:49:44.497Z,100980.91
2023-05-14T05:52:12.110Z,100975.00
2023-05-14T05:54:40.005Z,100980.97
2023-05-14T05:57:07.471Z,100978.25
2023-05-14T05:59:34.717Z,100968.13
2023-05-14T06:02:02.185Z,100967.44
2023-05-14T06:04:29.505Z,100971.34
2023-05-14T06:06:57.885Z,100971.66
2023-05-14T06:09:25.065Z,100970.00
2023-05-14T06:11:52.499Z,100970.25
2023-05-14T06:14:19.818Z,100965.34
2023-05-14T06:16:47.308Z,100972.22
2023-05-14T06:19:14.646Z,100954.22
2023-05-14T06:21:42.204Z,100972.75
2023-05-14T06:24:09.624Z,100971.84
2023-05-14T06:26:37.058Z,100970.13
2023-05-14T06:29:04.453Z,100969.97
2023-05-14T06:31:32.016Z,100961.63
2023-05-14T06:33:59.213Z,100966.44
2023-05-14T06:36:26.663Z,100958.22
2023-05-14T06:38:53.891Z,100970.81
2023-05-14T06:41:21.399Z,100966.81
2023-05-14T06:43:48.588Z,100969.84
2023-05-14T06:46:16.267Z,100961.16
2023-05-14T06:48:43.589Z,100967.84
2023-05-14T06:51:11.289Z,100964.13
2023-05-14T06:53:38.418Z,100966.28
2023-05-14T06:56:06.139Z,100958.06
2023-05-14T06:58:33.339Z,100960.16
2023-05-14T07:01:01.000Z,100969.31
2023-05-14T07:03:29.182Z,100972.34
2023-05-14T07:05:56.731Z,100966.91
2023-05-14T07:08:23.898Z,100964.53
2023-05-14T07:10:51.504Z,100956.66
2023-05-14T07:13:18.694Z,100958.16
2023-05-14T07:15:46.152Z,100947.84
2023-05-14T07:18:13.416Z,100953.25
2023-05-14T07:20:40.916Z,100948.75
2023-05-14T07:23:08.329Z,100959.78
2023-05-14T07:25:35.997Z,100964.34
2023-05-14T07:28:03.292Z,100963.94
2023-05-14T07:30:30.909Z,100953.50
2023-05-14T07:32:58.215Z,100961.41
2023-05-14T07:35:25.732Z,100942.09
2023-05-14T07:37:53.153Z,100945.69
2023-05-14T07:40:20.783Z,100944.28
2023-05-14T07:42:47.999Z,100942.09
2023-05-14T07:45:15.548Z,100933.59
2023-05-14T07:47:42.984Z,100936.44
2023-05-14T07:50:11.365Z,100940.59
2023-05-14T07:52:38.637Z,100939.31
2023-05-14T07:55:06.967Z,100929.06
2023-05-14T07:57:34.199Z,100935.06
2023-05-14T08:00:02.140Z,100936.72
2023-05-14T08:02:39.808Z,100937.97
2023-05-14T08:05:07.788Z,100923.16
2023-05-14T08:07:35.081Z,100918.47
2023-05-14T08:10:04.338Z,100914.63
2023-05-14T08:12:31.870Z,100912.63
2023-05-14T08:14:59.422Z,100922.75
2023-05-14T08:17:26.763Z,100921.78
2023-05-14T08:19:54.521Z,100911.75
2023-05-14T08:22:21.895Z,100911.78
2023-05-14T08:24:49.348Z,100911.72
2023-05-14T08:27:16.754Z,100920.16
2023-05-14T08:29:44.251Z,100908.69
2023-05-14T08:32:21.972Z,100900.72
2023-05-14T08:34:51.931Z,100901.84
2023-05-14T08:37:19.267Z,100909.34
2023-05-14T08:39:46.820Z,100902.34
2023-05-14T08:42:17.996Z,100899.09
2023-05-14T08:44:52.298Z,100908.75
2023-05-14T08:47:22.485Z,100895.72
2023-05-14T08:49:58.413Z,100896.56
2023-05-14T08:52:26.123Z,100882.88
2023-05-14T08:54:56.443Z,100889.22
2023-05-14T08:57:26.740Z,100888.38
2023-05-14T08:59:54.481Z,100877.31
2023-05-14T09:02:25.090Z,100879.09
2023-05-14T09:04:56.475Z,100878.31
2023-05-14T09:07:24.453Z,100869.28
2023-05-14T09:09:52.889Z,100871.56
2023-05-14T09:12:20.572Z,100870.16
2023-05-14T09:14:49.625Z,100864.69
2023-05-14T09:17:17.910Z,100862.91
2023-05-14T09:19:53.078Z,100865.69
2023-05-14T09:22:20.742Z,100865.47
2023-05-14T09:25:06.808Z,100871.97
2023-05-14T09:27:34.377Z,100860.00
2023-05-14T09:30:13.360Z,100861.28
2023-05-14T09:32:44.246Z,100849.84
2023-05-14T09:35:13.258Z,100852.41
2023-05-14T09:37:45.252Z,100842.50
2023-05-14T09:40:13.620Z,100853.66
2023-05-14T09:42:41.490Z,100839.28
2023-05-14T09:45:09.985Z,100843.06
2023-05-14T09:47:38.821Z,100838.44
2023-05-14T09:50:07.538Z,100834.22
2023-05-14T09:52:35.686Z,100830.88
2023-05-14T09:55:03.485Z,100833.31
2023-05-14T09:57:31.049Z,100834.72
2023-05-14T09:59:58.545Z,100823.84
2023-05-14T10:02:30.280Z,100825.53
2023-05-14T10:05:02.600Z,100820.22
2023-05-14T10:07:37.074Z,100809.69
2023-05-14T10:10:08.217Z,100810.75
2023-05-14T10:12:39.444Z,100811.34
2023-05-14T10:15:16.798Z,100818.31
2023-05-14T10:17:49.828Z,100806.03
2023-05-14T10:20:18.073Z,100803.81
2023-05-14T10:22:46.172Z,100814.22
2023-05-14T10:25:14.131Z,100806.56
2023-05-14T10:27:42.462Z,100799.69
2023-05-14T10:30:13.359Z,100808.13
2023-05-14T10:32:42.008Z,100801.91
2023-05-14T10:35:22.265Z,100809.38
2023-05-14T10:37:51.776Z,100807.84
2023-05-14T10:40:23.614Z,100811.34
2023-05-14T10:42:51.045Z,100788.75
2023-05-14T10:45:18.804Z,100799.38
2023-05-14T10:47:47.306Z,100797.81
2023-05-14T10:50:16.094Z,100791.91
2023-05-14T10:52:46.527Z,100782.38
2023-05-14T10:55:16.174Z,100782.03
2023-05-14T10:57:45.805Z,100776.00
2023-05-14T11:00:14.901Z,100770.78
2023-05-14T11:02:44.750Z,100763.25
2023-05-14T11:05:16.900Z,100773.41
2023-05-14T11:07:49.249Z,100768.50
2023-05-14T11:10:18.852Z,100769.88
2023-05-14T11:12:53.869Z,100758.00
2023-05-14T11:15:22.760Z,100754.72
2023-05-14T11:17:51.530Z,100761.66
2023-05-14T11:20:20.343Z,100760.66
2023-05-14T11:22:49.064Z,100742.91
2023-05-14T11:25:17.874Z,100753.69
2023-05-14T11:27:47.272Z,100761.06
2023-05-14T11:30:19.675Z,100754.47
2023-05-14T11:32:48.967Z,100745.25
2023-05-14T11:35:18.046Z,100741.88
2023-05-14T11:37:52.500Z,100738.75
2023-05-14T11:40:20.277Z,100740.78
2023-05-14T11:42:47.502Z,100747.34
2023-05-14T11:45:26.433Z,100729.44
2023-05-14T11:47:54.850Z,100721.00
2023-05-14T11:50:23.193Z,100732.28
2023-05-14T11:52:51.138Z,100731.25
2023-05-14T11:55:18.803Z,100720.56
2023-05-14T11:57:46.196Z,100731.56
2023-05-14T12:00:14.604Z,100712.88
2023-05-14T12:02:42.034Z,100715.66
2023-05-14T12:05:13.576Z,100707.84
2023-05-14T12:07:41.991Z,100717.03
2023-05-14T12:10:12.921Z,100715.88
2023-05-14T12:12:40.269Z,100725.59
2023-05-14T12:15:13.586Z,100714.69
2023-05-14T12:17:41.340Z,100708.88
2023-05-14T12:20:15.045Z,100714.75
2023-05-14T12:22:42.752Z,100707.38
2023-05-14T12:25:13.860Z,100696.50
2023-05-14T12:27:44.847Z,100684.63
2023-05-14T12:30:21.157Z,100686.25
2023-05-14T12:32:53.058Z,100677.59
2023-05-14T12:35:21.615Z,100684.81
2023-05-14T12:37:49.105Z,100685.19
2023-05-14T12:40:16.660Z,100681.63
2023-05-14T12:42:43.893Z,100678.47
2023-05-14T12:45:12.553Z,100676.56
2023-05-14T12:47:39.729Z,100666.88
2023-05-14T12:50:07.858Z,100667.84
2023-05-14T12:52:39.149Z,100670.47
2023-05-14T12:55:09.260Z,100670.03
2023-05-14T12:57:39.698Z,100665.00
2023-05-14T13:00:12.898Z,100664.59
2023-05-14T13:02:42.721Z,100661.63
2023-05-14T13:05:12.726Z,100667.50
2023-05-14T13:07:40.176Z,100656.13
2023-05-14T13:10:08.339Z,100649.84
2023-05-14T13:12:35.785Z,100646.00
2023-05-14T13:15:03.415Z,100653.34
2023-05-14T13:17:32.609Z,100655.88
2023-05-14T13:20:00.234Z,100658.66
2023-05-14T13:22:27.453Z,100660.38
2023-05-14T13:24:54.926Z,100678.25
2023-05-14T13:27:22.073Z,100672.91
2023-05-14T13:29:49.529Z,100651.31
2023-05-14T13:32:16.704Z,100642.06
2023-05-14T13:34:44.215Z,100628.63
2023-05-14T13:37:11.427Z,100644.97
2023-05-14T13:39:40.903Z,100639.19
2023-05-14T13:42:08.461Z,100630.03
2023-05-14T13:44:36.295Z,100633.59
2023-05-14T13:47:03.588Z,100627.00
2023-05-14T13:49:31.089Z,100639.63
2023-05-14T13:51:58.437Z,100637.38
2023-05-14T13:54:26.097Z,100633.94
2023-05-14T13:56:53.319Z,100613.31
2023-05-14T13:59:21.155Z,100611.88
2023-05-14T14:01:49.917Z,100606.44
2023-05-14T14:04:17.856Z,100607.25
2023-05-14T14:06:45.155Z,100604.72
2023-05-14T14:09:13.855Z,100596.31
2023-05-14T14:11:41.370Z,100608.50
2023-05-14T14:14:08.873Z,100600.16
2023-05-14T14:16:36.303Z,100594.88
2023-05-14T14:19:03.983Z,100590.69
2023-05-14T14:21:31.859Z,100597.81
2023-05-14T14:23:59.369Z,100599.69
2023-05-14T14:26:28.075Z,100588.69
2023-05-14T14:28:55.757Z,100582.44
2023-05-14T14:31:23.079Z,100573.16
2023-05-14T14:33:50.674Z,100568.78
2023-05-14T14:36:17.860Z,100564.38
2023-05-14T14:38:45.414Z,100565.41
2023-05-14T14:41:12.755Z,100550.44
2023-05-14T14:43:41.156Z,100568.97
2023-05-14T14:46:11.230Z,100560.97
2023-05-14T14:48:39.143Z,100565.22
2023-05-14T14:51:07.905Z,100562.69
2023-05-14T14:53:37.056Z,100554.22
2023-05-14T14:56:04.940Z,100546.63
2023-05-14T14:58:32.994Z,100551.50
2023-05-14T15:01:01.228Z,100552.53
2023-05-14T15:03:29.310Z,100536.16
2023-05-14T15:05:56.726Z,100524.78
2023-05-14T15:08:28.078Z,100524.78
2023-05-14T15:10:56.624Z,100517.22
2023-05-14T15:13:24.756Z,100523.09
2023-05-14T15:15:55.180Z,100513.81
2023-05-14T15:18:22.649Z,100515.09
2023-05-14T15:20:50.058Z,100516.28
2023-05-14T15:23:17.715Z,100506.25
2023-05-14T15:25:45.190Z,100507.53
2023-05-14T15:28:12.655Z,100508.56
2023-05-14T15:30:39.814Z,100504.78
2023-05-14T15:33:11.077Z,100497.63
2023-05-14T15:35:38.397Z,100498.25
2023-05-14T15:38:07.031Z,100500.38
2023-05-14T15:40:35.272Z,100499.44
2023-05-14T15:43:03.117Z,100501.16
2023-05-14T15:45:30.352Z,100496.97
2023-05-14T15:47:57.890Z,100499.69
2023-05-14T15:50:27.409Z,100493.06
2023-05-14T15:52:55.040Z,100493.69
2023-05-14T15:55:22.289Z,100482.09
2023-05-14T15:57:49.829Z,100479.81
2023-05-14T16:00:17.661Z,100482.19
2023-05-14T16:02:45.251Z,100477.25
2023-05-14T16:05:13.956Z,100475.50
2023-05-14T16:07:42.834Z,100480.41
2023-05-14T16:10:10.441Z,100478.47
2023-05-14T16:12:37.912Z,100471.94
2023-05-14T16:15:06.730Z,100457.63
2023-05-14T16:17:34.940Z,100457.66
2023-05-14T16:20:02.335Z,100442.72
2023-05-14T16:22:32.760Z,100445.84
2023-05-14T16:25:03.150Z,100443.50
2023-05-14T16:27:31.747Z,100419.97
2023-05-14T16:29:59.076Z,100434.31
2023-05-14T16:32:26.602Z,100423.81
2023-05-14T16:34:54.005Z,100424.84
2023-05-14T16:37:21.755Z,100441.06
2023-05-14T16:39:49.055Z,100436.00
2023-05-14T16:42:16.556Z,100426.53
2023-05-14T16:44:43.998Z,100432.03
2023-05-14T16:47:11.549Z,100431.13
2023-05-14T16:49:38.725Z,100434.06
2023-05-14T16:52:06.769Z,100436.22
2023-05-14T16:54:34.061Z,100442.44
2023-05-14T16:57:01.714Z,100425.81
2023-05-14T16:59:28.985Z,100427.13
2023-05-14T17:01:56.504Z,100434.25
2023-05-14T17:04:26.601Z,100427.50
2023-05-14T17:06:54.596Z,100424.38
2023-05-14T17:09:21.857Z,100426.06
2023-05-14T17:11:49.358Z,100427.09
2023-05-14T17:14:16.988Z,100418.53
2023-05-14T17:16:44.485Z,100421.28
2023-05-14T17:19:12.428Z,100423.38
2023-05-14T17:21:40.128Z,100429.06
2023-05-14T17:24:07.487Z,100418.44
2023-05-14T17:26:35.090Z,100420.13
2023-05-14T17:29:02.427Z,100426.25
2023-05-14T17:31:30.105Z,100424.09
2023-05-14T17:33:57.388Z,100426.44
2023-05-14T17:36:25.213Z,100411.72
2023-05-14T17:38:52.659Z,100423.91
2023-05-14T17:41:20.259Z,100419.50
2023-05-14T17:43:47.437Z,100425.13
2023-05-14T17:46:15.129Z,100415.97
2023-05-14T17:48:42.364Z,100421.38
2023-05-14T17:51:09.927Z,100414.16
2023-05-14T17:53:37.230Z,100409.84
2023-05-14T17:56:05.311Z,100410.84
2023-05-14T17:58:32.597Z,100414.91
2023-05-14T18:01:00.290Z,100410.91
2023-05-14T18:03:27.694Z,100409.72
2023-05-14T18:05:55.408Z,100410.47
2023-05-14T18:08:22.619Z,100419.69
2023-05-14T18:10:50.088Z,100421.97
2023-05-14T18:13:17.280Z,100411.97
2023-05-14T18:15:45.066Z,100418.53
2023-05-14T18:18:12.440Z,100413.53
2023-05-14T18:20:39.974Z,100409.53
2023-05-14T18:23:07.193Z,100412.06
2023-05-14T18:25:34.704Z,100429.22
2023-05-14T18:28:02.087Z,100415.75
2023-05-14T18:30:29.618Z,100418.63
2023-05-14T18:32:56.943Z,100420.09
2023-05-14T18:35:24.549Z,100422.94
2023-05-14T18:37:52.012Z,100421.63
2023-05-14T18:40:19.784Z,100420.59
2023-05-14T18:42:47.170Z,100417.00
2023-05-14T18:45:14.737Z,100419.41
2023-05-14T18:47:42.116Z,100414.50
2023-05-14T18:50:09.943Z,100420.78
2023-05-14T18:52:37.314Z,100415.63
2023-05-14T18:55:05.366Z,100406.81
2023-05-14T18:57:33.015Z,100404.28
2023-05-14T19:00:02.079Z,100412.91
2023-05-14T19:02:30.059Z,100408.25
2023-05-14T19:04:57.862Z,100402.63
2023-05-14T19:07:25.113Z,100406.31
2023-05-14T19:09:53.171Z,100388.75
2023-05-14T19:12:20.413Z,100400.59
2023-05-14T19:14:47.925Z,100385.88
2023-05-14T19:17:15.824Z,100397.03
2023-05-14T19:19:44.328Z,100393.28
2023-05-14T19:22:11.630Z,100391.31
2023-05-14T19:24:40.175Z,100373.59
2023-05-14T19:27:08.176Z,100390.28
2023-05-14T19:29:36.931Z,100382.97
2023-05-14T19:32:04.826Z,100383.16
2023-05-14T19:34:32.403Z,100371.91
2023-05-14T19:36:59.773Z,100376.19
2023-05-14T19:39:27.504Z,100380.34
2023-05-14T19:41:54.777Z,100370.59
2023-05-14T19:44:22.242Z,100371.91
2023-05-14T19:46:49.586Z,100368.53
2023-05-14T19:49:17.156Z,100365.44
2023-05-14T19:51:44.321Z,100363.47
2023-05-14T19:54:11.829Z,100355.91
2023-05-14T19:56:39.130Z,100362.16
2023-05-14T19:59:07.003Z,100361.97
2023-05-14T20:01:34.873Z,100358.50
2023-05-14T20:04:02.544Z,100353.66
2023-05-14T20:06:29.855Z,100360.09
2023-05-14T20:08:57.417Z,100358.97
2023-05-14T20:11:24.590Z,100358.22
2023-05-14T20:13:52.067Z,100357.41
2023-05-14T20:16:19.363Z,100360.94
2023-05-14T20:18:47.013Z,100367.50
2023-05-14T20:21:14.230Z,100363.38
2023-05-14T20:23:41.848Z,100362.25
2023-05-14T20:26:09.239Z,100355.88
2023-05-14T20:28:36.841Z,100366.75
2023-05-14T20:31:04.364Z,100364.31
2023-05-14T20:33:31.878Z,100351.28
2023-05-14T20:35:59.403Z,100363.66
2023-05-14T20:38:29.406Z,100353.44
2023-05-14T20:40:57.056Z,100357.66
2023-05-14T20:43:26.456Z,100349.69
2023-05-14T20:45:53.867Z,100352.97
2023-05-14T20:48:22.147Z,100344.47
2023-05-14T20:50:49.408Z,100344.53
2023-05-14T20:53:16.940Z,100344.91
2023-05-14T20:55:44.819Z,100342.50
2023-05-14T20:58:12.354Z,100336.03
2023-05-14T21:00:39.663Z,100339.78
2023-05-14T21:03:07.302Z,100332.00
2023-05-14T21:05:34.897Z,100313.75
2023-05-14T21:08:02.447Z,100324.22
2023-05-14T21:10:29.650Z,100319.91
2023-05-14T21:12:57.130Z,100314.41
2023-05-14T21:15:24.566Z,100325.94
2023-05-14T21:17:52.540Z,100324.66
2023-05-14T21:20:19.808Z,100321.66
2023-05-14T21:22:47.247Z,100318.56
2023-05-14T21:25:14.601Z,100316.25
2023-05-14T21:27:42.105Z,100316.06
2023-05-14T21:30:09.824Z,100302.50
2023-05-14T21:32:37.299Z,100313.19
2023-05-14T21:35:05.390Z,100294.28
2023-05-14T21:37:33.191Z,100301.38
2023-05-14T21:40:00.477Z,100297.25
2023-05-14T21:42:28.089Z,100286.91
2023-05-14T21:44:55.289Z,100294.81
2023-05-14T21:47:22.883Z,100286.41
2023-05-14T21:49:50.068Z,100291.78
2023-05-14T21:52:17.514Z,100292.72
2023-05-14T21:54:44.746Z,100288.94
2023-05-14T21:57:12.204Z,100283.44
2023-05-14T21:59:39.375Z,100290.13
2023-05-14T22:02:07.901Z,100286.66
2023-05-14T22:04:35.549Z,100278.09
2023-05-14T22:07:03.702Z,100285.03
2023-05-14T22:09:30.866Z,100279.13
2023-05-14T22:11:58.681Z,100278.81
2023-05-14T22:14:27.386Z,100273.47
2023-05-14T22:16:55.140Z,100268.69
2023-05-14T22:19:22.557Z,100267.81
2023-05-14T22:21:50.026Z,100276.66
2023-05-14T22:24:17.298Z,100266.19
2023-05-14T22:26:44.915Z,100263.53
2023-05-14T22:29:12.061Z,100260.03
2023-05-14T22:31:39.716Z,100256.31
2023-05-14T22:34:06.938Z,100268.78
2023-05-14T22:36:34.500Z,100267.19
2023-05-14T22:39:01.700Z,100274.81
2023-05-14T22:41:29.493Z,100259.81
2023-05-14T22:43:56.670Z,100267.25
2023-05-14T22:46:24.354Z,100254.00
2023-05-14T22:48:51.714Z,100254.44
2023-05-14T22:51:19.174Z,100251.25
2023-05-14T22:53:47.189Z,100259.38
2023-05-14T22:56:15.392Z,100250.63
2023-05-14T22:58:42.552Z,100248.34
2023-05-14T23:01:10.032Z,100241.25
2023-05-14T23:03:37.263Z,100232.47
2023-05-14T23:06:05.045Z,100240.59
2023-05-14T23:08:32.303Z,100231.63
2023-05-14T23:10:59.808Z,100242.34
2023-05-14T23:13:26.996Z,100224.13
2023-05-14T23:15:54.552Z,100222.50
2023-05-14T23:18:24.048Z,100220.44
2023-05-14T23:20:51.713Z,100220.75
2023-05-14T23:23:18.928Z,100214.53
2023-05-14T23:25:46.559Z,100217.91
2023-05-14T23:28:13.863Z,100203.72
2023-05-14T23:30:41.550Z,100209.09
2023-05-14T23:33:08.889Z,100206.88
2023-05-14T23:35:38.246Z,100204.97
2023-05-14T23:38:06.214Z,100198.66
2023-05-14T23:40:34.245Z,100192.97
2023-05-14T23:43:01.445Z,100183.13
2023-05-14T23:45:29.847Z,100193.63
2023-05-14T23:47:58.602Z,100185.66
2023-05-14T23:50:26.118Z,100182.78
2023-05-14T23:52:54.342Z,100181.03
2023-05-14T23:55:22.322Z,100178.31
2023-05-14T23:57:49.725Z,100175.59
